sensor_id;sensor_type;location;lat;lon;timestamp;temperature;humidity
19680;DHT22;9989;48.962;9.182;2022-08-16T00:00:24;19.90;99.90
19680;DHT22;9989;48.962;9.182;2022-08-16T00:02:51;19.90;99.90
19680;DHT22;9989;48.962;9.182;2022-08-16T00:05:18;19.90;99.90
19680;DHT22;9989;48.962;9.182;2022-08-16T00:07:43;19.80;99.90
19680;DHT22;9989;48.962;9.182;2022-08-16T00:10:11;19.80;99.90
19680;DHT22;9989;48.962;9.182;2022-08-16T00:12:38;19.70;99.90
19680;DHT22;9989;48.962;9.182;2022-08-16T00:15:15;19.70;99.90
19680;DHT22;9989;48.962;9.182;2022-08-16T00:17:41;19.70;99.90
19680;DHT22;9989;48.962;9.182;2022-08-16T00:20:12;19.60;99.90
19680;DHT22;9989;48.962;9.182;2022-08-16T00:22:39;19.60;99.90
19680;DHT22;9989;48.962;9.182;2022-08-16T00:25:09;19.50;99.90
19680;DHT22;9989;48.962;9.182;2022-08-16T00:27:35;19.50;99.90
19680;DHT22;9989;48.962;9.182;2022-08-16T00:30:02;19.50;99.90
19680;DHT22;9989;48.962;9.182;2022-08-16T00:32:28;19.50;99.90
19680;DHT22;9989;48.962;9.182;2022-08-16T00:34:54;19.50;99.90
19680;DHT22;9989;48.962;9.182;2022-08-16T00:37:21;19.50;99.90
19680;DHT22;9989;48.962;9.182;2022-08-16T00:39:47;19.60;99.90
19680;DHT22;9989;48.962;9.182;2022-08-16T00:42:14;19.60;99.90
19680;DHT22;9989;48.962;9.182;2022-08-16T00:44:44;19.60;99.90
19680;DHT22;9989;48.962;9.182;2022-08-16T00:47:12;19.70;99.90
19680;DHT22;9989;48.962;9.182;2022-08-16T00:49:41;19.70;99.90
19680;DHT22;9989;48.962;9.182;2022-08-16T00:52:06;19.70;99.90
19680;DHT22;9989;48.962;9.182;2022-08-16T00:54:32;19.70;99.90
19680;DHT22;9989;48.962;9.182;2022-08-16T00:57:00;19.70;99.90
19680;DHT22;9989;48.962;9.182;2022-08-16T00:59:29;19.70;99.90
19680;DHT22;9989;48.962;9.182;2022-08-16T01:01:55;19.70;99.90
19680;DHT22;9989;48.962;9.182;2022-08-16T01:04:23;19.70;99.90
19680;DHT22;9989;48.962;9.182;2022-08-16T01:06:50;19.70;99.90
19680;DHT22;9989;48.962;9.182;2022-08-16T01:09:17;19.80;99.90
19680;DHT22;9989;48.962;9.182;2022-08-16T01:11:44;19.80;99.90
19680;DHT22;9989;48.962;9.182;2022-08-16T01:14:24;19.90;99.90
19680;DHT22;9989;48.962;9.182;2022-08-16T01:16:50;19.90;99.90
19680;DHT22;9989;48.962;9.182;2022-08-16T01:19:27;19.90;99.90
19680;DHT22;9989;48.962;9.182;2022-08-16T01:24:39;20.00;99.90
19680;DHT22;9989;48.962;9.182;2022-08-16T01:27:21;20.00;99.90
19680;DHT22;9989;48.962;9.182;2022-08-16T01:29:59;20.00;99.90
19680;DHT22;9989;48.962;9.182;2022-08-16T01:32:30;20.00;99.90
19680;DHT22;9989;48.962;9.182;2022-08-16T01:34:56;20.00;99.90
19680;DHT22;9989;48.962;9.182;2022-08-16T01:37:22;20.00;99.90
19680;DHT22;9989;48.962;9.182;2022-08-16T01:39:47;20.00;99.90
19680;DHT22;9989;48.962;9.182;2022-08-16T01:42:13;19.90;99.90
19680;DHT22;9989;48.962;9.182;2022-08-16T01:44:40;19.90;99.90
19680;DHT22;9989;48.962;9.182;2022-08-16T01:47:06;19.90;99.90
19680;DHT22;9989;48.962;9.182;2022-08-16T01:49:35;19.80;99.90
19680;DHT22;9989;48.962;9.182;2022-08-16T01:52:05;19.80;99.90
19680;DHT22;9989;48.962;9.182;2022-08-16T01:54:31;19.70;99.90
19680;DHT22;9989;48.962;9.182;2022-08-16T01:56:58;19.70;99.90
19680;DHT22;9989;48.962;9.182;2022-08-16T01:59:25;19.70;99.90
19680;DHT22;9989;48.962;9.182;2022-08-16T02:01:51;19.70;99.90
19680;DHT22;9989;48.962;9.182;2022-08-16T02:04:18;19.60;99.90
19680;DHT22;9989;48.962;9.182;2022-08-16T02:06:44;19.60;99.90
19680;DHT22;9989;48.962;9.182;2022-08-16T02:09:11;19.60;99.90
19680;DHT22;9989;48.962;9.182;2022-08-16T02:11:38;19.60;99.90
19680;DHT22;9989;48.962;9.182;2022-08-16T02:14:04;19.50;99.90
19680;DHT22;9989;48.962;9.182;2022-08-16T02:16:31;19.50;99.90
19680;DHT22;9989;48.962;9.182;2022-08-16T02:18:57;19.50;99.90
19680;DHT22;9989;48.962;9.182;2022-08-16T02:21:23;19.50;99.90
19680;DHT22;9989;48.962;9.182;2022-08-16T02:23:49;19.50;99.90
19680;DHT22;9989;48.962;9.182;2022-08-16T02:26:15;19.40;99.90
19680;DHT22;9989;48.962;9.182;2022-08-16T02:28:41;19.30;99.90
19680;DHT22;9989;48.962;9.182;2022-08-16T02:31:10;19.30;99.90
19680;DHT22;9989;48.962;9.182;2022-08-16T02:33:36;19.20;99.90
19680;DHT22;9989;48.962;9.182;2022-08-16T02:36:03;19.20;99.90
19680;DHT22;9989;48.962;9.182;2022-08-16T02:38:29;19.10;99.90
19680;DHT22;9989;48.962;9.182;2022-08-16T02:40:56;19.00;99.90
19680;DHT22;9989;48.962;9.182;2022-08-16T02:43:27;19.00;99.90
19680;DHT22;9989;48.962;9.182;2022-08-16T02:45:54;19.00;99.90
19680;DHT22;9989;48.962;9.182;2022-08-16T02:48:20;18.90;99.90
19680;DHT22;9989;48.962;9.182;2022-08-16T02:50:46;18.90;99.90
19680;DHT22;9989;48.962;9.182;2022-08-16T02:53:12;18.90;99.90
19680;DHT22;9989;48.962;9.182;2022-08-16T02:55:38;18.90;99.90
19680;DHT22;9989;48.962;9.182;2022-08-16T02:58:03;18.90;99.90
19680;DHT22;9989;48.962;9.182;2022-08-16T03:00:30;18.80;99.90
19680;DHT22;9989;48.962;9.182;2022-08-16T03:02:56;18.80;99.90
19680;DHT22;9989;48.962;9.182;2022-08-16T03:05:22;18.80;99.90
19680;DHT22;9989;48.962;9.182;2022-08-16T03:07:48;18.80;99.90
19680;DHT22;9989;48.962;9.182;2022-08-16T03:10:14;18.80;99.90
19680;DHT22;9989;48.962;9.182;2022-08-16T03:12:40;18.80;99.90
19680;DHT22;9989;48.962;9.182;2022-08-16T03:15:10;18.80;99.90
19680;DHT22;9989;48.962;9.182;2022-08-16T03:17:35;18.80;99.90
19680;DHT22;9989;48.962;9.182;2022-08-16T03:20:06;18.80;99.90
19680;DHT22;9989;48.962;9.182;2022-08-16T03:22:32;18.90;99.90
19680;DHT22;9989;48.962;9.182;2022-08-16T03:25:01;18.90;99.90
19680;DHT22;9989;48.962;9.182;2022-08-16T03:27:30;18.90;99.90
19680;DHT22;9989;48.962;9.182;2022-08-16T03:29:55;18.90;99.90
19680;DHT22;9989;48.962;9.182;2022-08-16T03:32:21;18.80;99.90
19680;DHT22;9989;48.962;9.182;2022-08-16T03:34:47;18.80;99.90
19680;DHT22;9989;48.962;9.182;2022-08-16T03:37:12;18.80;99.90
19680;DHT22;9989;48.962;9.182;2022-08-16T03:39:38;18.80;99.90
19680;DHT22;9989;48.962;9.182;2022-08-16T03:42:04;18.70;99.90
19680;DHT22;9989;48.962;9.182;2022-08-16T03:44:32;18.70;99.90
19680;DHT22;9989;48.962;9.182;2022-08-16T03:46:57;18.70;99.90
19680;DHT22;9989;48.962;9.182;2022-08-16T03:49:23;18.70;99.90
19680;DHT22;9989;48.962;9.182;2022-08-16T03:51:49;18.70;99.90
19680;DHT22;9989;48.962;9.182;2022-08-16T03:54:15;18.70;99.90
19680;DHT22;9989;48.962;9.182;2022-08-16T03:56:41;18.60;99.90
19680;DHT22;9989;48.962;9.182;2022-08-16T03:59:07;18.60;99.90
19680;DHT22;9989;48.962;9.182;2022-08-16T04:01:33;18.60;99.90
19680;DHT22;9989;48.962;9.182;2022-08-16T04:04:01;18.60;99.90
19680;DHT22;9989;48.962;9.182;2022-08-16T04:06:26;18.50;99.90
19680;DHT22;9989;48.962;9.182;2022-08-16T04:08:52;18.50;99.90
19680;DHT22;9989;48.962;9.182;2022-08-16T04:11:18;18.40;99.90
19680;DHT22;9989;48.962;9.182;2022-08-16T04:13:43;18.40;99.90
19680;DHT22;9989;48.962;9.182;2022-08-16T04:16:10;18.40;99.90
19680;DHT22;9989;48.962;9.182;2022-08-16T04:18:36;18.40;99.90
19680;DHT22;9989;48.962;9.182;2022-08-16T04:21:03;18.40;99.90
19680;DHT22;9989;48.962;9.182;2022-08-16T04:23:29;18.40;99.90
19680;DHT22;9989;48.962;9.182;2022-08-16T04:25:55;18.40;99.90
19680;DHT22;9989;48.962;9.182;2022-08-16T04:28:20;18.40;99.90
19680;DHT22;9989;48.962;9.182;2022-08-16T04:30:46;18.50;99.90
19680;DHT22;9989;48.962;9.182;2022-08-16T04:33:11;18.50;99.90
19680;DHT22;9989;48.962;9.182;2022-08-16T04:35:37;18.50;99.90
19680;DHT22;9989;48.962;9.182;2022-08-16T04:38:03;18.50;99.90
19680;DHT22;9989;48.962;9.182;2022-08-16T04:40:29;18.60;99.90
19680;DHT22;9989;48.962;9.182;2022-08-16T04:42:55;18.60;99.90
19680;DHT22;9989;48.962;9.182;2022-08-16T04:45:21;18.70;99.90
19680;DHT22;9989;48.962;9.182;2022-08-16T04:47:46;18.70;99.90
19680;DHT22;9989;48.962;9.182;2022-08-16T04:50:21;18.80;99.90
19680;DHT22;9989;48.962;9.182;2022-08-16T04:52:48;18.80;99.90
19680;DHT22;9989;48.962;9.182;2022-08-16T04:55:23;18.90;99.90
19680;DHT22;9989;48.962;9.182;2022-08-16T04:57:51;18.90;99.90
19680;DHT22;9989;48.962;9.182;2022-08-16T05:00:21;19.00;99.90
19680;DHT22;9989;48.962;9.182;2022-08-16T05:02:54;19.00;99.90
19680;DHT22;9989;48.962;9.182;2022-08-16T05:05:20;19.10;99.90
19680;DHT22;9989;48.962;9.182;2022-08-16T05:07:47;19.10;99.90
19680;DHT22;9989;48.962;9.182;2022-08-16T05:10:12;19.20;99.90
19680;DHT22;9989;48.962;9.182;2022-08-16T05:12:38;19.30;99.90
19680;DHT22;9989;48.962;9.182;2022-08-16T05:15:05;19.40;99.90
19680;DHT22;9989;48.962;9.182;2022-08-16T05:17:31;19.40;99.90
19680;DHT22;9989;48.962;9.182;2022-08-16T05:19:57;19.50;99.90
19680;DHT22;9989;48.962;9.182;2022-08-16T05:22:23;19.60;99.90
19680;DHT22;9989;48.962;9.182;2022-08-16T05:24:48;19.70;99.90
19680;DHT22;9989;48.962;9.182;2022-08-16T05:27:15;19.80;99.90
19680;DHT22;9989;48.962;9.182;2022-08-16T05:29:40;19.80;99.90
19680;DHT22;9989;48.962;9.182;2022-08-16T05:32:06;19.90;99.90
19680;DHT22;9989;48.962;9.182;2022-08-16T05:34:32;19.90;99.90
19680;DHT22;9989;48.962;9.182;2022-08-16T05:36:58;20.00;99.90
19680;DHT22;9989;48.962;9.182;2022-08-16T05:39:24;20.00;99.90
19680;DHT22;9989;48.962;9.182;2022-08-16T05:41:51;20.00;99.90
19680;DHT22;9989;48.962;9.182;2022-08-16T05:44:18;20.10;99.90
19680;DHT22;9989;48.962;9.182;2022-08-16T05:46:44;20.10;99.90
19680;DHT22;9989;48.962;9.182;2022-08-16T05:49:11;20.20;99.90
19680;DHT22;9989;48.962;9.182;2022-08-16T05:51:45;20.20;99.90
19680;DHT22;9989;48.962;9.182;2022-08-16T05:54:12;20.20;99.90
19680;DHT22;9989;48.962;9.182;2022-08-16T05:56:39;20.30;99.90
19680;DHT22;9989;48.962;9.182;2022-08-16T05:59:06;20.30;99.90
19680;DHT22;9989;48.962;9.182;2022-08-16T06:01:33;20.30;99.90
19680;DHT22;9989;48.962;9.182;2022-08-16T06:03:59;20.30;99.90
19680;DHT22;9989;48.962;9.182;2022-08-16T06:06:24;20.40;99.90
19680;DHT22;9989;48.962;9.182;2022-08-16T06:08:50;20.40;99.90
19680;DHT22;9989;48.962;9.182;2022-08-16T06:11:15;20.40;99.90
19680;DHT22;9989;48.962;9.182;2022-08-16T06:13:41;20.40;99.90
19680;DHT22;9989;48.962;9.182;2022-08-16T06:16:07;20.40;99.90
19680;DHT22;9989;48.962;9.182;2022-08-16T06:18:33;20.40;99.90
19680;DHT22;9989;48.962;9.182;2022-08-16T06:20:59;20.40;99.90
19680;DHT22;9989;48.962;9.182;2022-08-16T06:23:24;20.40;99.90
19680;DHT22;9989;48.962;9.182;2022-08-16T06:25:51;20.40;99.90
19680;DHT22;9989;48.962;9.182;2022-08-16T06:28:17;20.50;99.90
19680;DHT22;9989;48.962;9.182;2022-08-16T06:30:43;20.50;99.90
19680;DHT22;9989;48.962;9.182;2022-08-16T06:33:08;20.60;99.90
19680;DHT22;9989;48.962;9.182;2022-08-16T06:35:35;20.70;99.90
19680;DHT22;9989;48.962;9.182;2022-08-16T06:38:01;20.70;99.90
19680;DHT22;9989;48.962;9.182;2022-08-16T06:40:27;20.80;99.90
19680;DHT22;9989;48.962;9.182;2022-08-16T06:42:54;20.90;99.90
19680;DHT22;9989;48.962;9.182;2022-08-16T06:45:21;21.10;99.90
19680;DHT22;9989;48.962;9.182;2022-08-16T06:47:46;21.20;99.90
19680;DHT22;9989;48.962;9.182;2022-08-16T06:50:12;21.30;99.90
19680;DHT22;9989;48.962;9.182;2022-08-16T06:52:38;21.40;99.90
19680;DHT22;9989;48.962;9.182;2022-08-16T06:55:05;21.50;99.90
19680;DHT22;9989;48.962;9.182;2022-08-16T06:57:31;21.50;99.90
19680;DHT22;9989;48.962;9.182;2022-08-16T06:59:56;21.60;99.90
19680;DHT22;9989;48.962;9.182;2022-08-16T07:02:22;21.70;99.90
19680;DHT22;9989;48.962;9.182;2022-08-16T07:04:48;21.70;99.90
19680;DHT22;9989;48.962;9.182;2022-08-16T07:07:14;21.80;99.90
19680;DHT22;9989;48.962;9.182;2022-08-16T07:09:39;21.90;99.90
19680;DHT22;9989;48.962;9.182;2022-08-16T07:12:05;22.00;99.90
19680;DHT22;9989;48.962;9.182;2022-08-16T07:14:32;22.10;99.90
19680;DHT22;9989;48.962;9.182;2022-08-16T07:16:58;22.10;99.90
19680;DHT22;9989;48.962;9.182;2022-08-16T07:19:25;22.10;99.90
19680;DHT22;9989;48.962;9.182;2022-08-16T07:21:50;22.10;99.90
19680;DHT22;9989;48.962;9.182;2022-08-16T07:24:16;22.20;99.90
19680;DHT22;9989;48.962;9.182;2022-08-16T07:26:42;22.40;99.90
19680;DHT22;9989;48.962;9.182;2022-08-16T07:29:08;22.40;99.90
19680;DHT22;9989;48.962;9.182;2022-08-16T07:31:34;22.50;99.90
19680;DHT22;9989;48.962;9.182;2022-08-16T07:34:00;22.70;99.90
19680;DHT22;9989;48.962;9.182;2022-08-16T07:36:26;22.80;99.90
19680;DHT22;9989;48.962;9.182;2022-08-16T07:38:52;22.90;99.90
19680;DHT22;9989;48.962;9.182;2022-08-16T07:41:17;23.10;99.90
19680;DHT22;9989;48.962;9.182;2022-08-16T07:43:43;23.20;99.90
19680;DHT22;9989;48.962;9.182;2022-08-16T07:46:09;23.30;99.90
19680;DHT22;9989;48.962;9.182;2022-08-16T07:48:35;23.50;99.90
19680;DHT22;9989;48.962;9.182;2022-08-16T07:51:01;23.60;99.90
19680;DHT22;9989;48.962;9.182;2022-08-16T07:53:29;23.70;99.90
19680;DHT22;9989;48.962;9.182;2022-08-16T07:55:55;23.90;99.90
19680;DHT22;9989;48.962;9.182;2022-08-16T07:58:21;23.90;99.90
19680;DHT22;9989;48.962;9.182;2022-08-16T08:00:47;23.90;99.90
19680;DHT22;9989;48.962;9.182;2022-08-16T08:03:12;24.00;99.90
19680;DHT22;9989;48.962;9.182;2022-08-16T08:05:38;23.90;99.90
19680;DHT22;9989;48.962;9.182;2022-08-16T08:08:05;24.00;99.90
19680;DHT22;9989;48.962;9.182;2022-08-16T08:10:30;24.00;99.90
19680;DHT22;9989;48.962;9.182;2022-08-16T08:12:56;24.10;99.90
19680;DHT22;9989;48.962;9.182;2022-08-16T08:15:23;24.30;99.70
19680;DHT22;9989;48.962;9.182;2022-08-16T08:17:49;24.40;99.50
19680;DHT22;9989;48.962;9.182;2022-08-16T08:20:20;24.50;99.20
19680;DHT22;9989;48.962;9.182;2022-08-16T08:22:47;24.70;98.50
19680;DHT22;9989;48.962;9.182;2022-08-16T08:25:13;24.80;98.20
19680;DHT22;9989;48.962;9.182;2022-08-16T08:27:39;24.90;98.30
19680;DHT22;9989;48.962;9.182;2022-08-16T08:30:05;25.10;98.20
19680;DHT22;9989;48.962;9.182;2022-08-16T08:32:31;25.30;97.50
19680;DHT22;9989;48.962;9.182;2022-08-16T08:34:57;25.50;96.90
19680;DHT22;9989;48.962;9.182;2022-08-16T08:37:24;25.70;96.30
19680;DHT22;9989;48.962;9.182;2022-08-16T08:39:52;25.90;96.00
19680;DHT22;9989;48.962;9.182;2022-08-16T08:42:18;26.10;95.60
19680;DHT22;9989;48.962;9.182;2022-08-16T08:44:43;26.30;95.10
19680;DHT22;9989;48.962;9.182;2022-08-16T08:47:09;26.60;94.40
19680;DHT22;9989;48.962;9.182;2022-08-16T08:49:35;26.80;93.70
19680;DHT22;9989;48.962;9.182;2022-08-16T08:52:03;27.00;92.90
19680;DHT22;9989;48.962;9.182;2022-08-16T08:54:28;27.10;92.10
19680;DHT22;9989;48.962;9.182;2022-08-16T08:56:54;27.10;91.70
19680;DHT22;9989;48.962;9.182;2022-08-16T08:59:20;27.00;91.40
19680;DHT22;9989;48.962;9.182;2022-08-16T09:01:45;26.90;91.50
19680;DHT22;9989;48.962;9.182;2022-08-16T09:04:12;26.80;91.70
19680;DHT22;9989;48.962;9.182;2022-08-16T09:06:38;26.80;91.50
19680;DHT22;9989;48.962;9.182;2022-08-16T09:09:05;26.90;91.00
19680;DHT22;9989;48.962;9.182;2022-08-16T09:11:31;26.80;91.10
19680;DHT22;9989;48.962;9.182;2022-08-16T09:13:58;26.70;91.40
19680;DHT22;9989;48.962;9.182;2022-08-16T09:16:24;26.60;91.50
19680;DHT22;9989;48.962;9.182;2022-08-16T09:18:50;26.60;91.10
19680;DHT22;9989;48.962;9.182;2022-08-16T09:21:16;26.60;91.40
19680;DHT22;9989;48.962;9.182;2022-08-16T09:23:41;26.70;91.50
19680;DHT22;9989;48.962;9.182;2022-08-16T09:26:09;26.90;91.60
19680;DHT22;9989;48.962;9.182;2022-08-16T09:28:36;27.20;91.10
19680;DHT22;9989;48.962;9.182;2022-08-16T09:31:03;27.50;90.20
19680;DHT22;9989;48.962;9.182;2022-08-16T09:33:29;27.70;87.40
19680;DHT22;9989;48.962;9.182;2022-08-16T09:35:54;27.90;86.70
19680;DHT22;9989;48.962;9.182;2022-08-16T09:38:21;27.90;85.20
19680;DHT22;9989;48.962;9.182;2022-08-16T09:40:48;28.00;85.10
19680;DHT22;9989;48.962;9.182;2022-08-16T09:43:18;28.00;84.10
19680;DHT22;9989;48.962;9.182;2022-08-16T09:45:45;28.10;83.20
19680;DHT22;9989;48.962;9.182;2022-08-16T09:48:13;28.10;83.10
19680;DHT22;9989;48.962;9.182;2022-08-16T09:50:40;28.20;82.50
19680;DHT22;9989;48.962;9.182;2022-08-16T09:53:11;28.30;83.10
19680;DHT22;9989;48.962;9.182;2022-08-16T09:55:38;28.40;81.90
19680;DHT22;9989;48.962;9.182;2022-08-16T09:58:04;28.60;81.50
19680;DHT22;9989;48.962;9.182;2022-08-16T10:00:29;28.90;81.00
19680;DHT22;9989;48.962;9.182;2022-08-16T10:02:55;29.10;77.70
19680;DHT22;9989;48.962;9.182;2022-08-16T10:05:23;29.10;77.20
19680;DHT22;9989;48.962;9.182;2022-08-16T10:07:49;29.20;77.10
19680;DHT22;9989;48.962;9.182;2022-08-16T10:10:22;29.30;76.20
19680;DHT22;9989;48.962;9.182;2022-08-16T10:12:48;29.40;75.60
19680;DHT22;9989;48.962;9.182;2022-08-16T10:15:34;29.50;75.30
19680;DHT22;9989;48.962;9.182;2022-08-16T10:18:01;29.80;75.80
19680;DHT22;9989;48.962;9.182;2022-08-16T10:20:37;30.00;72.60
19680;DHT22;9989;48.962;9.182;2022-08-16T10:23:06;30.10;71.50
19680;DHT22;9989;48.962;9.182;2022-08-16T10:25:34;30.10;69.80
19680;DHT22;9989;48.962;9.182;2022-08-16T10:28:01;30.10;69.10
19680;DHT22;9989;48.962;9.182;2022-08-16T10:30:26;29.90;69.80
19680;DHT22;9989;48.962;9.182;2022-08-16T10:32:52;29.70;69.30
19680;DHT22;9989;48.962;9.182;2022-08-16T10:35:18;29.60;69.70
19680;DHT22;9989;48.962;9.182;2022-08-16T10:37:44;29.50;71.00
19680;DHT22;9989;48.962;9.182;2022-08-16T10:40:12;29.50;70.30
19680;DHT22;9989;48.962;9.182;2022-08-16T10:42:37;29.30;70.90
19680;DHT22;9989;48.962;9.182;2022-08-16T10:45:04;29.20;70.50
19680;DHT22;9989;48.962;9.182;2022-08-16T10:47:29;29.00;71.70
19680;DHT22;9989;48.962;9.182;2022-08-16T10:49:55;29.10;71.70
19680;DHT22;9989;48.962;9.182;2022-08-16T10:52:24;29.20;70.60
19680;DHT22;9989;48.962;9.182;2022-08-16T10:54:49;29.50;70.90
19680;DHT22;9989;48.962;9.182;2022-08-16T10:57:15;29.70;69.20
19680;DHT22;9989;48.962;9.182;2022-08-16T10:59:41;29.80;67.90
19680;DHT22;9989;48.962;9.182;2022-08-16T11:02:10;29.70;68.40
19680;DHT22;9989;48.962;9.182;2022-08-16T11:04:36;29.50;69.00
19680;DHT22;9989;48.962;9.182;2022-08-16T11:07:03;29.50;69.10
19680;DHT22;9989;48.962;9.182;2022-08-16T11:09:29;29.70;68.80
19680;DHT22;9989;48.962;9.182;2022-08-16T11:11:55;30.00;68.30
19680;DHT22;9989;48.962;9.182;2022-08-16T11:14:21;30.20;66.80
19680;DHT22;9989;48.962;9.182;2022-08-16T11:16:48;30.30;66.10
19680;DHT22;9989;48.962;9.182;2022-08-16T11:19:14;30.30;66.50
19680;DHT22;9989;48.962;9.182;2022-08-16T11:21:41;30.50;66.60
19680;DHT22;9989;48.962;9.182;2022-08-16T11:24:07;30.90;66.20
19680;DHT22;9989;48.962;9.182;2022-08-16T11:26:33;31.10;63.90
19680;DHT22;9989;48.962;9.182;2022-08-16T11:28:59;31.20;63.10
19680;DHT22;9989;48.962;9.182;2022-08-16T11:31:24;31.20;63.50
19680;DHT22;9989;48.962;9.182;2022-08-16T11:33:50;31.20;62.20
19680;DHT22;9989;48.962;9.182;2022-08-16T11:36:16;31.30;63.10
19680;DHT22;9989;48.962;9.182;2022-08-16T11:38:41;31.40;62.00
19680;DHT22;9989;48.962;9.182;2022-08-16T11:41:07;31.50;61.40
19680;DHT22;9989;48.962;9.182;2022-08-16T11:43:37;31.50;61.80
19680;DHT22;9989;48.962;9.182;2022-08-16T11:46:06;31.40;60.80
19680;DHT22;9989;48.962;9.182;2022-08-16T11:48:33;31.30;61.00
19680;DHT22;9989;48.962;9.182;2022-08-16T11:51:00;31.50;61.80
19680;DHT22;9989;48.962;9.182;2022-08-16T11:53:27;31.90;61.10
19680;DHT22;9989;48.962;9.182;2022-08-16T11:55:54;32.10;59.70
19680;DHT22;9989;48.962;9.182;2022-08-16T11:58:21;32.30;59.60
19680;DHT22;9989;48.962;9.182;2022-08-16T12:00:47;32.60;58.60
19680;DHT22;9989;48.962;9.182;2022-08-16T12:03:14;32.60;57.80
19680;DHT22;9989;48.962;9.182;2022-08-16T12:05:41;32.30;57.70
19680;DHT22;9989;48.962;9.182;2022-08-16T12:08:07;32.10;58.50
19680;DHT22;9989;48.962;9.182;2022-08-16T12:10:34;31.90;58.20
19680;DHT22;9989;48.962;9.182;2022-08-16T12:13:00;31.90;59.50
19680;DHT22;9989;48.962;9.182;2022-08-16T12:15:26;31.90;58.70
19680;DHT22;9989;48.962;9.182;2022-08-16T12:17:54;32.00;59.00
19680;DHT22;9989;48.962;9.182;2022-08-16T12:20:28;32.10;59.20
19680;DHT22;9989;48.962;9.182;2022-08-16T12:22:54;32.10;57.80
19680;DHT22;9989;48.962;9.182;2022-08-16T12:25:22;32.20;58.00
19680;DHT22;9989;48.962;9.182;2022-08-16T12:27:49;32.30;58.30
19680;DHT22;9989;48.962;9.182;2022-08-16T12:30:19;32.60;58.80
19680;DHT22;9989;48.962;9.182;2022-08-16T12:32:45;32.80;58.80
19680;DHT22;9989;48.962;9.182;2022-08-16T12:35:14;33.10;56.70
19680;DHT22;9989;48.962;9.182;2022-08-16T12:37:41;33.30;56.80
19680;DHT22;9989;48.962;9.182;2022-08-16T12:40:09;33.40;55.30
19680;DHT22;9989;48.962;9.182;2022-08-16T12:42:35;33.40;55.20
19680;DHT22;9989;48.962;9.182;2022-08-16T12:45:03;33.20;54.80
19680;DHT22;9989;48.962;9.182;2022-08-16T12:47:29;33.00;55.30
19680;DHT22;9989;48.962;9.182;2022-08-16T12:50:14;32.90;56.10
19680;DHT22;9989;48.962;9.182;2022-08-16T12:52:39;32.90;55.20
19680;DHT22;9989;48.962;9.182;2022-08-16T12:55:05;32.80;55.30
19680;DHT22;9989;48.962;9.182;2022-08-16T12:57:31;32.50;55.00
19680;DHT22;9989;48.962;9.182;2022-08-16T12:59:57;32.30;55.10
19680;DHT22;9989;48.962;9.182;2022-08-16T13:02:24;32.20;56.60
19680;DHT22;9989;48.962;9.182;2022-08-16T13:04:50;32.20;56.10
19680;DHT22;9989;48.962;9.182;2022-08-16T13:07:16;32.30;55.60
19680;DHT22;9989;48.962;9.182;2022-08-16T13:09:42;32.50;54.90
19680;DHT22;9989;48.962;9.182;2022-08-16T13:12:18;32.80;55.30
19680;DHT22;9989;48.962;9.182;2022-08-16T13:14:48;32.90;54.80
19680;DHT22;9989;48.962;9.182;2022-08-16T13:17:19;33.20;55.30
19680;DHT22;9989;48.962;9.182;2022-08-16T13:19:46;33.30;54.20
19680;DHT22;9989;48.962;9.182;2022-08-16T13:22:12;33.30;53.70
19680;DHT22;9989;48.962;9.182;2022-08-16T13:24:38;33.30;53.80
19680;DHT22;9989;48.962;9.182;2022-08-16T13:27:03;33.30;53.70
19680;DHT22;9989;48.962;9.182;2022-08-16T13:29:29;33.10;53.70
19680;DHT22;9989;48.962;9.182;2022-08-16T13:31:55;33.00;54.60
19680;DHT22;9989;48.962;9.182;2022-08-16T13:34:21;33.10;54.10
19680;DHT22;9989;48.962;9.182;2022-08-16T13:36:46;33.00;53.80
19680;DHT22;9989;48.962;9.182;2022-08-16T13:39:12;32.90;53.90
19680;DHT22;9989;48.962;9.182;2022-08-16T13:41:37;32.80;54.40
19680;DHT22;9989;48.962;9.182;2022-08-16T13:44:04;32.80;55.20
19680;DHT22;9989;48.962;9.182;2022-08-16T13:46:31;32.90;54.50
19680;DHT22;9989;48.962;9.182;2022-08-16T13:48:57;33.10;55.20
19680;DHT22;9989;48.962;9.182;2022-08-16T13:51:24;33.30;54.20
19680;DHT22;9989;48.962;9.182;2022-08-16T13:53:53;33.40;53.30
19680;DHT22;9989;48.962;9.182;2022-08-16T13:56:19;33.50;53.40
19680;DHT22;9989;48.962;9.182;2022-08-16T13:58:45;33.50;53.20
19680;DHT22;9989;48.962;9.182;2022-08-16T14:01:12;33.60;54.10
19680;DHT22;9989;48.962;9.182;2022-08-16T14:03:39;33.70;52.90
19680;DHT22;9989;48.962;9.182;2022-08-16T14:06:06;33.70;52.60
19680;DHT22;9989;48.962;9.182;2022-08-16T14:08:32;33.80;53.00
19680;DHT22;9989;48.962;9.182;2022-08-16T14:10:58;33.90;53.30
19680;DHT22;9989;48.962;9.182;2022-08-16T14:13:23;34.10;52.60
19680;DHT22;9989;48.962;9.182;2022-08-16T14:15:49;34.10;51.80
19680;DHT22;9989;48.962;9.182;2022-08-16T14:18:15;34.10;51.60
19680;DHT22;9989;48.962;9.182;2022-08-16T14:20:40;34.10;51.40
19680;DHT22;9989;48.962;9.182;2022-08-16T14:23:06;34.00;50.90
19680;DHT22;9989;48.962;9.182;2022-08-16T14:25:32;33.80;51.10
19680;DHT22;9989;48.962;9.182;2022-08-16T14:27:58;33.50;51.60
19680;DHT22;9989;48.962;9.182;2022-08-16T14:30:24;33.30;52.20
19680;DHT22;9989;48.962;9.182;2022-08-16T14:32:50;33.10;52.20
19680;DHT22;9989;48.962;9.182;2022-08-16T14:35:25;33.00;52.80
19680;DHT22;9989;48.962;9.182;2022-08-16T14:37:51;33.10;52.90
19680;DHT22;9989;48.962;9.182;2022-08-16T14:40:18;33.10;52.60
19680;DHT22;9989;48.962;9.182;2022-08-16T14:42:45;33.10;52.60
19680;DHT22;9989;48.962;9.182;2022-08-16T14:45:15;33.10;52.90
19680;DHT22;9989;48.962;9.182;2022-08-16T14:47:41;33.20;53.10
19680;DHT22;9989;48.962;9.182;2022-08-16T14:50:09;33.30;52.80
19680;DHT22;9989;48.962;9.182;2022-08-16T14:52:37;33.30;53.10
19680;DHT22;9989;48.962;9.182;2022-08-16T14:55:03;33.30;52.70
19680;DHT22;9989;48.962;9.182;2022-08-16T14:57:29;33.20;51.80
19680;DHT22;9989;48.962;9.182;2022-08-16T14:59:55;33.00;52.70
19680;DHT22;9989;48.962;9.182;2022-08-16T15:02:23;32.90;53.20
19680;DHT22;9989;48.962;9.182;2022-08-16T15:04:50;32.90;52.90
19680;DHT22;9989;48.962;9.182;2022-08-16T15:07:16;32.90;53.10
19680;DHT22;9989;48.962;9.182;2022-08-16T15:09:44;32.90;54.40
19680;DHT22;9989;48.962;9.182;2022-08-16T15:12:13;33.10;54.00
19680;DHT22;9989;48.962;9.182;2022-08-16T15:14:40;33.20;53.30
19680;DHT22;9989;48.962;9.182;2022-08-16T15:17:06;33.30;53.50
19680;DHT22;9989;48.962;9.182;2022-08-16T15:19:32;33.40;53.30
19680;DHT22;9989;48.962;9.182;2022-08-16T15:21:58;33.50;52.60
19680;DHT22;9989;48.962;9.182;2022-08-16T15:24:24;33.40;53.40
19680;DHT22;9989;48.962;9.182;2022-08-16T15:26:50;33.40;53.40
19680;DHT22;9989;48.962;9.182;2022-08-16T15:29:17;33.40;53.00
19680;DHT22;9989;48.962;9.182;2022-08-16T15:31:44;33.40;53.50
19680;DHT22;9989;48.962;9.182;2022-08-16T15:34:11;33.40;53.40
19680;DHT22;9989;48.962;9.182;2022-08-16T15:36:37;33.20;52.40
19680;DHT22;9989;48.962;9.182;2022-08-16T15:39:03;33.00;53.80
19680;DHT22;9989;48.962;9.182;2022-08-16T15:44:04;32.80;52.90
19680;DHT22;9989;48.962;9.182;2022-08-16T15:46:30;32.70;53.50